Portada
METAR-TAF:

METAR-TAF

Aeropuertos :

Aeropuerto de Burdeos-Mérignac

Burdeos, Francia

latitud: 44-50N, longitud: 000-42W, altitud: 49 m

Observación

El informe se hizo hace 18 minutos, a las 18:30 UTC
Viento 6 kt del norte-noreste
Temperatura 9°C
Humedad 71%
Presión 1019 hPa
Visibilidad 10 km o más
sin nubes por debajo de 1500 m y sin presencia de cumulonimbus.

METAR: LFBD 291830Z AUTO 03006KT CAVOK 09/04 Q1019 NOSIG

Hora: 19:48 (18:48 UTC)

Pronóstico

El informe se hizo hace 1 hora y 48 minutos, a las 17:00 UTC
Pronóstico válido del 29 a las 18 UTC al 30 a las 24 UTC
Viento 5 kt del norte-noreste
Visibilidad 10 km o más
sin nubes por debajo de 1500 m y sin presencia de cumulonimbus.
Temporalmente
del 30 a las 04 UTC al 30 a las 07 UTC
Visibilidad: 2000 m
Cielo nuboso a una altura de 500 ft
Niebla baja

TAF: LFBD 291700Z 2918/3024 03005KT CAVOK TX10/3014Z TN01/3005Z TEMPO 3004/3007 2000 MIFG BKN005

Observaciones y pronósticos meteorológicos de más de 4000 aeropuertos (mensajes METAR y TAF).

Los puntos amarillos y rojos representan las estaciones disponibles.

Ponga el ratón en el punto deseado para ver el nombre de la estación.

Haga clic para ver las observaciones y los pronósticos meteorológicos.

Para cambiar el mapa : haga clic en los botones verdes con una cruz de color negro para hacer un zoom, en el botón verde con un guión para alejar o en las flechas verdes para mapas adyacentes.


METAR-TAF: